CST,Max TemperatureF,Mean TemperatureF,Min TemperatureF,Max Dew PointF,MeanDew PointF,Min DewpointF,Max Humidity, Mean Humidity, Min Humidity, Max Sea Level PressureIn, Mean Sea Level PressureIn, Min Sea Level PressureIn, Max VisibilityMiles, Mean VisibilityMiles, Min VisibilityMiles, Max Wind SpeedMPH, Mean Wind SpeedMPH, Max Gust SpeedMPH,PrecipitationIn, CloudCover, Events, WindDirDegrees
2012-9-1,85,74,64,70,64,60,94,74,35,30.06,29.98,29.85,12,7,1,13,5,,0.31,5,Fog-Rain-Thunderstorm,129
2012-9-2,83,74,64,68,63,59,88,73,45,30.06,29.98,29.83,12,8,2,12,6,,0.12,5,Rain,84
2012-9-3,80,72,64,70,63,43,94,75,43,30.12,30.02,29.87,12,8,5,12,5,,0.00,5,Fog,90
2012-9-4,84,75,66,68,65,50,94,81,46,30.10,30.02,29.85,12,5,0,12,6,,0.55,6,Fog-Rain-Thunderstorm,237
2012-9-5,79,72,64,68,65,60,94,83,59,30.08,30.00,29.85,12,7,0,10,5,,0.43,5,Fog-Rain-Thunderstorm,117
2012-9-6,82,73,64,72,66,63,94,83,53,30.06,29.99,29.84,12,5,0,14,5,,0.75,5,Fog-Rain-Thunderstorm,78
2012-9-7,86,76,65,68,65,61,94,79,42,30.06,29.97,29.79,12,6,0,13,5,,0.00,4,Fog-Rain,190
2012-9-8,82,74,66,68,66,64,94,83,55,30.05,29.96,29.82,12,6,0,14,4,20,0.47,5,Fog-Rain-Thunderstorm,224
2012-9-9,79,72,64,68,65,62,94,83,60,30.09,30.02,29.87,12,7,5,9,4,,0.16,6,Fog-Rain,211
2012-9-10,84,76,67,72,63,59,83,67,38,30.07,29.99,29.82,12,8,6,15,8,23,0.02,5,Rain,99
2012-9-11,82,75,68,63,60,57,73,63,45,30.07,29.97,29.81,12,8,2,18,9,38,0.08,6,Rain,93
2012-9-12,84,76,67,61,57,50,73,54,23,30.01,29.93,29.75,12,8,6,16,10,32,0.00,3,,85
2012-9-13,83,75,67,68,63,55,94,73,48,30.01,29.94,29.79,12,8,2,12,6,,0.35,6,Fog-Rain-Thunderstorm,106
2012-9-14,82,74,66,68,64,61,88,75,52,30.03,29.96,29.85,12,7,1,24,8,37,0.79,6,Rain-Thunderstorm,94
2012-9-15,84,74,65,70,66,61,94,79,49,30.06,29.98,29.82,12,6,1,18,6,,0.24,5,Fog-Rain-Thunderstorm,152
2012-9-16,86,76,66,72,64,57,94,73,39,30.09,29.99,29.83,12,7,1,12,6,,0.00,5,Rain-Thunderstorm,95
2012-9-17,80,72,63,68,64,61,94,81,59,30.10,30.02,29.87,12,8,2,10,4,,0.02,6,Rain-Thunderstorm,89
2012-9-18,80,71,62,68,64,59,94,81,46,30.11,30.03,29.90,12,7,0,12,6,,0.00,6,Fog-Rain-Thunderstorm,225
2012-9-19,81,72,63,68,64,59,94,75,44,30.09,29.99,29.83,12,7,3,12,6,,0.94,4,Fog-Rain-Thunderstorm,74
2012-9-20,82,74,65,70,66,60,94,78,43,30.01,29.93,29.76,12,7,2,10,6,,0.04,4,Fog-Rain-Thunderstorm,218
2012-9-21,82,72,63,68,64,59,94,79,44,29.99,29.91,29.77,12,7,0,17,5,,0.75,5,Rain-Thunderstorm,200
2012-9-22,81,73,65,69,65,59,94,80,44,30.04,29.95,29.79,12,8,4,9,5,,0.20,6,Rain-Thunderstorm,209
2012-9-23,80,73,66,70,65,61,94,80,64,30.05,29.97,29.84,12,7,2,10,6,,0.16,6,Fog-Rain-Thunderstorm,34
2012-9-24,82,72,63,68,63,59,94,74,50,30.04,29.95,29.80,12,8,6,13,5,,0.02,5,Rain,88
2012-9-25,82,72,63,70,63,50,100,76,46,30.05,29.96,29.82,12,8,3,12,7,,0.00,5,Rain-Thunderstorm,88
2012-9-26,82,72,63,70,65,60,94,79,44,30.04,29.95,29.79,12,7,1,13,6,,0.08,5,Fog-Rain-Thunderstorm,92
2012-9-27,81,72,63,70,64,60,94,84,61,30.05,29.96,29.82,12,6,0,14,5,,1.89,6,Fog-Rain-Thunderstorm,101
2012-9-28,81,71,61,68,63,52,88,74,51,30.05,29.97,29.82,12,7,6,13,5,,0.00,5,Rain-Thunderstorm,107
2012-9-29,81,72,63,75,64,59,94,80,48,30.04,29.95,29.76,12,7,3,15,5,,0.20,5,Rain-Thunderstorm,245
2012-9-30,80,73,66,70,66,63,94,81,57,30.02,29.95,29.82,12,8,6,13,4,,0.00,6,Rain,234